createdAt,value
2023-02-22T00:02:29.057Z,5.28
2023-02-22T00:05:20.101Z,5.47
2023-02-22T00:08:10.102Z,4.55
2023-02-22T00:10:57.682Z,5.43
2023-02-22T00:13:45.451Z,4.90
2023-02-22T00:16:32.573Z,5.32
2023-02-22T00:19:20.232Z,5.20
2023-02-22T00:22:08.827Z,6.13
2023-02-22T00:24:57.758Z,6.40
2023-02-22T00:27:46.081Z,6.75
2023-02-22T00:30:34.720Z,6.72
2023-02-22T00:33:22.077Z,6.38
2023-02-22T00:36:11.228Z,5.32
2023-02-22T00:38:59.679Z,6.03
2023-02-22T00:41:46.929Z,6.50
2023-02-22T00:44:34.200Z,5.53
2023-02-22T00:47:21.209Z,6.07
2023-02-22T00:50:10.087Z,5.43
2023-02-22T00:52:57.982Z,5.15
2023-02-22T00:55:46.757Z,6.10
2023-02-22T00:58:33.934Z,6.13
2023-02-22T01:01:22.339Z,6.35
2023-02-22T01:04:10.607Z,6.28
2023-02-22T01:07:00.570Z,7.28
2023-02-22T01:09:48.628Z,6.80
2023-02-22T01:12:38.790Z,7.97
2023-02-22T01:15:28.947Z,6.72
2023-02-22T01:18:17.307Z,6.38
2023-02-22T01:21:06.137Z,5.45
2023-02-22T01:23:55.046Z,6.97
2023-02-22T01:26:42.243Z,6.65
2023-02-22T01:29:30.538Z,6.82
2023-02-22T01:32:17.706Z,6.32
2023-02-22T01:35:08.512Z,6.32
2023-02-22T01:37:56.007Z,6.63
2023-02-22T01:40:44.918Z,7.43
2023-02-22T01:43:33.755Z,6.78
2023-02-22T01:46:24.528Z,7.05
2023-02-22T01:49:15.294Z,7.65
2023-02-22T01:52:08.808Z,6.80
2023-02-22T01:54:59.349Z,6.32
2023-02-22T01:57:48.986Z,7.85
2023-02-22T02:00:37.230Z,6.03
2023-02-22T02:03:28.647Z,6.53
2023-02-22T02:06:16.796Z,6.20
2023-02-22T02:09:11.859Z,6.43
2023-02-22T02:12:02.659Z,7.88
2023-02-22T02:14:50.572Z,8.07
2023-02-22T02:17:40.686Z,7.20
2023-02-22T02:20:37.723Z,8.02
2023-02-22T02:23:59.754Z,6.60
2023-02-22T02:27:17.797Z,6.85
2023-02-22T02:30:45.084Z,6.60
2023-02-22T02:33:35.853Z,7.20
2023-02-22T02:36:31.592Z,6.20
2023-02-22T02:39:28.514Z,6.93
2023-02-22T02:42:22.199Z,6.70
2023-02-22T02:45:12.716Z,6.93
2023-02-22T02:48:02.440Z,8.35
2023-02-22T02:50:53.720Z,7.43
2023-02-22T02:53:45.770Z,8.48
2023-02-22T02:56:32.848Z,7.45
2023-02-22T02:59:28.084Z,7.13
2023-02-22T03:02:29.071Z,6.93
2023-02-22T03:05:36.050Z,7.45
2023-02-22T03:08:32.390Z,9.20
2023-02-22T03:11:22.691Z,7.57
2023-02-22T03:14:17.804Z,9.57
2023-02-22T03:17:13.119Z,9.05
2023-02-22T03:20:09.645Z,9.60
2023-02-22T03:23:02.380Z,8.50
2023-02-22T03:25:54.777Z,7.68
2023-02-22T03:28:45.135Z,8.40
2023-02-22T03:31:38.020Z,7.80
2023-02-22T03:34:30.316Z,7.75
2023-02-22T03:37:22.001Z,8.70
2023-02-22T03:40:15.086Z,8.27
2023-02-22T03:43:10.026Z,11.15
2023-02-22T03:46:34.725Z,10.10
2023-02-22T03:49:29.886Z,9.18
2023-02-22T03:52:17.855Z,10.13
2023-02-22T03:55:11.222Z,9.88
2023-02-22T03:58:01.011Z,8.25
2023-02-22T04:00:53.554Z,9.10
2023-02-22T04:03:42.268Z,8.93
2023-02-22T04:10:09.860Z,8.85
2023-02-22T04:12:58.943Z,7.88
2023-02-22T04:15:46.752Z,7.32
2023-02-22T04:18:36.134Z,7.75
2023-02-22T04:21:24.252Z,8.15
2023-02-22T04:24:12.576Z,7.45
2023-02-22T04:27:02.364Z,7.75
2023-02-22T04:29:49.980Z,8.63
2023-02-22T04:32:38.031Z,8.38
2023-02-22T04:35:27.590Z,9.07
2023-02-22T04:38:15.429Z,8.50
2023-02-22T04:41:02.976Z,10.13
2023-02-22T04:43:50.569Z,9.13
2023-02-22T04:46:42.251Z,9.07
2023-02-22T04:49:30.388Z,9.38
2023-02-22T04:52:19.261Z,12.13
2023-02-22T04:55:07.870Z,12.10
2023-02-22T04:57:57.533Z,12.52
2023-02-22T05:00:45.149Z,11.38
2023-02-22T05:03:32.900Z,13.30
2023-02-22T05:06:20.360Z,12.13
2023-02-22T05:09:09.569Z,13.13
2023-02-22T05:11:57.362Z,13.32
2023-02-22T05:14:44.606Z,12.82
2023-02-22T05:17:33.661Z,13.10
2023-02-22T05:20:27.863Z,13.20
2023-02-22T05:23:15.570Z,13.07
2023-02-22T05:26:06.579Z,10.82
2023-02-22T05:28:54.391Z,11.77
2023-02-22T05:31:42.342Z,11.13
2023-02-22T05:34:30.933Z,11.02
2023-02-22T05:37:18.600Z,9.90
2023-02-22T05:40:07.728Z,10.38
2023-02-22T05:42:57.837Z,10.82
2023-02-22T05:45:45.409Z,10.15
2023-02-22T05:48:32.865Z,10.90
2023-02-22T05:51:20.616Z,10.20
2023-02-22T05:54:08.241Z,8.93
2023-02-22T05:56:55.880Z,11.63
2023-02-22T05:59:44.713Z,10.30
2023-02-22T06:02:32.385Z,13.25
2023-02-22T06:05:19.946Z,11.57
2023-02-22T06:08:08.393Z,12.98
2023-02-22T06:10:55.711Z,12.45
2023-02-22T06:13:43.242Z,13.23
2023-02-22T06:16:32.805Z,12.75
2023-02-22T06:19:20.456Z,12.75
2023-02-22T06:22:08.609Z,12.25
2023-02-22T06:24:56.007Z,13.95
2023-02-22T06:27:43.454Z,11.35
2023-02-22T06:30:31.754Z,12.63
2023-02-22T06:33:20.660Z,12.27
2023-02-22T06:36:09.287Z,11.20
2023-02-22T06:38:58.025Z,12.18
2023-02-22T06:41:46.279Z,11.02
2023-02-22T06:44:33.928Z,13.27
2023-02-22T06:47:21.251Z,11.77
2023-02-22T06:50:20.358Z,12.27
2023-02-22T06:53:08.164Z,16.08
2023-02-22T06:55:56.209Z,21.65
2023-02-22T06:58:43.750Z,21.65
2023-02-22T07:01:31.169Z,21.92
2023-02-22T07:04:18.956Z,20.70
2023-02-22T07:07:07.788Z,20.92
2023-02-22T07:09:55.418Z,20.45
2023-02-22T07:12:42.797Z,20.88
2023-02-22T07:15:32.728Z,17.00
2023-02-22T07:18:20.526Z,18.20
2023-02-22T07:21:08.392Z,20.42
2023-02-22T07:24:00.089Z,19.15
2023-02-22T07:26:47.415Z,20.02
2023-02-22T07:29:36.140Z,20.05
2023-02-22T07:32:24.293Z,17.27
2023-02-22T07:35:16.917Z,16.85
2023-02-22T07:38:06.141Z,18.27
2023-02-22T07:40:55.021Z,16.50
2023-02-22T07:43:42.394Z,17.30
2023-02-22T07:46:29.891Z,17.77
2023-02-22T07:49:17.702Z,15.38
2023-02-22T07:52:06.404Z,16.10
2023-02-22T07:54:53.717Z,13.82
2023-02-22T07:57:42.586Z,14.57
2023-02-22T08:00:32.040Z,14.48
2023-02-22T08:03:21.571Z,12.95
2023-02-22T08:06:09.614Z,12.95
2023-02-22T08:08:57.292Z,16.00
2023-02-22T08:11:44.938Z,19.30
2023-02-22T08:14:33.700Z,14.35
2023-02-22T08:17:21.216Z,12.05
2023-02-22T08:20:09.755Z,9.85
2023-02-22T08:22:58.929Z,7.72
2023-02-22T08:25:46.661Z,8.90
2023-02-22T08:28:34.202Z,17.67
2023-02-22T08:31:22.923Z,9.85
2023-02-22T08:34:10.597Z,7.30
2023-02-22T08:36:58.084Z,4.72
2023-02-22T08:39:45.796Z,5.45
2023-02-22T08:42:33.354Z,5.60
2023-02-22T08:45:21.028Z,5.93
2023-02-22T08:48:10.113Z,5.68
2023-02-22T08:50:58.149Z,6.60
2023-02-22T08:53:45.809Z,6.05
2023-02-22T08:56:33.387Z,6.20
2023-02-22T08:59:20.997Z,5.53
2023-02-22T09:02:16.292Z,6.53
2023-02-22T09:05:05.840Z,7.50
2023-02-22T09:07:53.294Z,6.50
2023-02-22T09:10:41.078Z,6.43
2023-02-22T09:13:28.428Z,7.63
2023-02-22T09:16:15.985Z,6.93
2023-02-22T09:19:03.300Z,5.80
2023-02-22T09:21:55.601Z,5.68
2023-02-22T09:24:43.652Z,6.03
2023-02-22T09:27:31.241Z,7.15
2023-02-22T09:30:23.983Z,6.63
2023-02-22T09:33:15.308Z,5.32
2023-02-22T09:36:03.112Z,6.70
2023-02-22T09:38:52.450Z,5.45
2023-02-22T09:41:50.076Z,5.25
2023-02-22T09:44:42.191Z,5.63
2023-02-22T09:47:40.343Z,5.57
2023-02-22T09:50:35.726Z,4.95
2023-02-22T09:53:29.968Z,4.30
2023-02-22T09:56:21.563Z,5.13
2023-02-22T09:59:13.659Z,4.85
2023-02-22T10:02:07.173Z,5.45
2023-02-22T10:05:01.612Z,3.00
2023-02-22T10:07:56.173Z,1.77
2023-02-22T10:10:46.461Z,1.45
2023-02-22T10:13:48.722Z,2.38
2023-02-22T10:16:44.283Z,2.85
2023-02-22T10:19:41.137Z,2.03
2023-02-22T10:25:26.970Z,2.33
2023-02-22T10:28:19.267Z,2.65
2023-02-22T10:31:10.419Z,1.95
2023-02-22T10:34:02.637Z,2.58
2023-02-22T10:36:54.420Z,2.58
2023-02-22T10:39:44.391Z,3.22
2023-02-22T10:42:32.216Z,2.22
2023-02-22T10:45:25.661Z,2.33
2023-02-22T10:48:18.549Z,2.05
2023-02-22T10:51:08.639Z,2.72
2023-02-22T10:54:08.827Z,2.33
2023-02-22T10:56:57.299Z,2.63
2023-02-22T10:59:45.344Z,2.17
2023-02-22T11:02:35.680Z,2.63
2023-02-22T11:05:37.802Z,2.42
2023-02-22T11:08:28.997Z,1.92
2023-02-22T11:11:25.418Z,2.25
2023-02-22T11:14:14.116Z,3.10
2023-02-22T11:17:07.263Z,2.65
2023-02-22T11:19:55.021Z,2.10
2023-02-22T11:22:44.210Z,2.78
2023-02-22T11:25:34.977Z,11.90
2023-02-22T11:28:32.916Z,9.70
2023-02-22T11:31:25.546Z,3.60
2023-02-22T11:34:36.529Z,2.83
2023-02-22T11:37:31.782Z,9.55
2023-02-22T11:40:23.488Z,8.18
2023-02-22T11:43:16.160Z,6.85
2023-02-22T11:46:06.274Z,3.28
2023-02-22T11:49:04.628Z,9.65
2023-02-22T11:52:04.438Z,3.85
2023-02-22T11:55:04.539Z,2.55
2023-02-22T11:58:05.914Z,5.88
2023-02-22T12:01:00.051Z,4.10
2023-02-22T12:04:40.685Z,5.60
2023-02-22T12:07:37.219Z,3.80
2023-02-22T12:13:40.084Z,2.53
2023-02-22T12:16:38.551Z,2.70
2023-02-22T12:19:36.133Z,2.95
2023-02-22T12:22:29.582Z,4.10
2023-02-22T12:25:21.707Z,3.30
2023-02-22T12:28:24.580Z,4.13
2023-02-22T12:31:23.121Z,3.00
2023-02-22T12:34:19.996Z,3.08
2023-02-22T12:37:16.166Z,3.53
2023-02-22T12:40:09.865Z,3.13
2023-02-22T12:43:02.305Z,3.72
2023-02-22T12:45:53.502Z,3.28
2023-02-22T12:48:48.919Z,3.65
2023-02-22T12:51:44.129Z,3.33
2023-02-22T12:54:44.174Z,2.67
2023-02-22T12:57:42.444Z,2.83
2023-02-22T13:00:36.319Z,3.63
2023-02-22T13:03:35.986Z,6.75
2023-02-22T13:06:39.794Z,3.30
2023-02-22T13:09:51.335Z,3.25
2023-02-22T13:12:52.204Z,2.45
2023-02-22T13:15:46.999Z,2.75
2023-02-22T13:18:39.178Z,3.38
2023-02-22T13:21:43.455Z,3.08
2023-02-22T13:24:40.753Z,3.72
2023-02-22T13:27:36.368Z,49.25
2023-02-22T13:30:33.762Z,4.80
2023-02-22T13:33:32.888Z,4.35
2023-02-22T13:36:36.848Z,4.78
2023-02-22T13:39:54.672Z,3.58
2023-02-22T13:46:21.656Z,2.28
2023-02-22T13:49:48.926Z,2.85
2023-02-22T13:52:41.119Z,3.40
2023-02-22T13:55:34.566Z,3.08
2023-02-22T13:58:22.373Z,2.92
2023-02-22T14:01:45.715Z,3.35
2023-02-22T14:04:44.522Z,2.83
2023-02-22T14:07:58.068Z,4.03
2023-02-22T14:10:50.792Z,4.60
2023-02-22T14:14:11.750Z,3.42
2023-02-22T14:17:23.245Z,3.78
2023-02-22T14:20:30.229Z,4.28
2023-02-22T14:23:37.289Z,3.70
2023-02-22T14:26:29.099Z,3.17
2023-02-22T14:29:18.854Z,3.25
2023-02-22T14:32:10.728Z,3.78
2023-02-22T14:35:01.481Z,6.05
2023-02-22T14:37:54.278Z,5.03
2023-02-22T14:40:45.900Z,6.60
2023-02-22T14:43:38.770Z,4.25
2023-02-22T14:46:30.435Z,3.97
2023-02-22T14:49:23.386Z,2.88
2023-02-22T14:52:22.304Z,4.75
2023-02-22T14:55:22.425Z,5.72
2023-02-22T14:58:18.719Z,3.83
2023-02-22T15:01:33.921Z,2.50
2023-02-22T15:04:26.646Z,2.88
2023-02-22T15:07:27.293Z,4.00
2023-02-22T15:10:22.462Z,3.30
2023-02-22T15:13:19.881Z,3.60
2023-02-22T15:16:08.241Z,3.03
2023-02-22T15:18:57.192Z,4.80
2023-02-22T15:21:47.419Z,3.83
2023-02-22T15:24:37.477Z,3.10
2023-02-22T15:27:26.251Z,4.05
2023-02-22T15:30:26.592Z,3.78
2023-02-22T15:33:17.898Z,4.57
2023-02-22T15:36:05.937Z,3.78
2023-02-22T15:38:55.864Z,4.22
2023-02-22T15:41:43.336Z,3.38
2023-02-22T15:44:35.288Z,4.03
2023-02-22T15:47:27.410Z,4.13
2023-02-22T15:50:21.538Z,4.78
2023-02-22T15:53:24.619Z,4.82
2023-02-22T15:56:16.446Z,4.30
2023-02-22T15:59:10.348Z,5.40
2023-02-22T16:02:00.376Z,4.55
2023-02-22T16:04:59.269Z,5.50
2023-02-22T16:07:50.556Z,4.82
2023-02-22T16:10:38.430Z,6.32
2023-02-22T16:13:32.664Z,6.00
2023-02-22T16:16:29.084Z,5.35
2023-02-22T16:19:32.918Z,5.45
2023-02-22T16:22:34.749Z,5.75
2023-02-22T16:25:32.898Z,5.70
2023-02-22T16:28:30.817Z,7.25
2023-02-22T16:31:21.120Z,7.57
2023-02-22T16:34:10.996Z,7.18
2023-02-22T16:36:58.916Z,8.07
2023-02-22T16:39:51.779Z,6.25
2023-02-22T16:42:39.217Z,7.80
2023-02-22T16:45:26.896Z,7.63
2023-02-22T16:48:18.116Z,6.95
2023-02-22T16:51:10.817Z,6.72
2023-02-22T16:53:58.891Z,7.53
2023-02-22T16:56:47.960Z,7.82
2023-02-22T16:59:39.792Z,8.73
2023-02-22T17:02:27.815Z,8.77
2023-02-22T17:05:17.624Z,7.82
2023-02-22T17:08:05.505Z,7.78
2023-02-22T17:10:56.725Z,8.02
2023-02-22T17:13:45.837Z,7.95
2023-02-22T17:16:33.181Z,8.45
2023-02-22T17:19:22.648Z,8.07
2023-02-22T17:22:18.476Z,8.60
2023-02-22T17:25:23.348Z,9.20
2023-02-22T17:28:11.096Z,10.52
2023-02-22T17:31:02.308Z,10.65
2023-02-22T17:33:51.480Z,13.13
2023-02-22T17:36:39.787Z,10.32
2023-02-22T17:39:27.925Z,8.93
2023-02-22T17:42:15.640Z,10.10
2023-02-22T17:45:03.024Z,9.73
2023-02-22T17:47:52.595Z,9.20
2023-02-22T17:50:41.272Z,10.32
2023-02-22T17:53:29.051Z,11.02
2023-02-22T17:56:19.930Z,9.52
2023-02-22T17:59:09.208Z,10.32
2023-02-22T18:01:56.601Z,10.50
2023-02-22T18:04:46.981Z,11.20
2023-02-22T18:07:34.484Z,11.32
2023-02-22T18:10:22.338Z,11.40
2023-02-22T18:13:10.079Z,10.60
2023-02-22T18:16:00.236Z,10.27
2023-02-22T18:18:49.515Z,9.35
2023-02-22T18:21:38.933Z,8.63
2023-02-22T18:24:26.496Z,9.90
2023-02-22T18:27:14.928Z,9.27
2023-02-22T18:30:02.280Z,8.75
2023-02-22T18:32:50.043Z,8.90
2023-02-22T18:35:37.527Z,9.90
2023-02-22T18:38:26.701Z,9.40
2023-02-22T18:41:16.486Z,8.43
2023-02-22T18:44:04.850Z,10.73
2023-02-22T18:46:54.058Z,9.77
2023-02-22T18:49:42.030Z,9.25
2023-02-22T18:52:31.070Z,10.20
2023-02-22T18:55:22.116Z,10.77
2023-02-22T18:58:11.147Z,11.18
2023-02-22T19:01:00.108Z,9.52
2023-02-22T19:03:48.411Z,9.82
2023-02-22T19:06:36.161Z,9.88
2023-02-22T19:09:23.468Z,10.90
2023-02-22T19:12:12.620Z,9.90
2023-02-22T19:15:00.395Z,10.65
2023-02-22T19:17:47.717Z,11.90
2023-02-22T19:20:35.125Z,10.77
2023-02-22T19:23:22.790Z,10.90
2023-02-22T19:26:10.172Z,10.98
2023-02-22T19:29:04.752Z,10.40
2023-02-22T19:31:53.783Z,8.65
2023-02-22T19:34:44.019Z,9.63
2023-02-22T19:37:34.163Z,10.27
2023-02-22T19:40:23.271Z,9.45
2023-02-22T19:43:10.688Z,10.50
2023-02-22T19:45:59.612Z,9.63
2023-02-22T19:48:47.289Z,10.85
2023-02-22T19:51:42.061Z,11.82
2023-02-22T19:54:29.606Z,10.85
2023-02-22T19:57:17.199Z,10.10
2023-02-22T20:00:10.919Z,9.80
2023-02-22T20:03:05.851Z,10.60
2023-02-22T20:05:57.653Z,12.10
2023-02-22T20:08:45.018Z,11.85
2023-02-22T20:11:32.733Z,10.43
2023-02-22T20:14:23.443Z,11.90
2023-02-22T20:17:11.240Z,13.30
2023-02-22T20:20:00.155Z,11.90
2023-02-22T20:22:47.909Z,12.00
2023-02-22T20:25:35.578Z,12.63
2023-02-22T20:28:23.170Z,12.65
2023-02-22T20:31:13.754Z,12.30
2023-02-22T20:34:02.662Z,13.10
2023-02-22T20:36:51.698Z,13.02
2023-02-22T20:39:39.569Z,14.80
2023-02-22T20:42:27.089Z,14.80
2023-02-22T20:45:16.251Z,14.05
2023-02-22T20:48:03.837Z,15.60
2023-02-22T20:50:51.259Z,14.23
2023-02-22T20:53:41.868Z,15.27
2023-02-22T20:56:31.804Z,15.57
2023-02-22T20:59:20.985Z,17.13
2023-02-22T21:02:08.700Z,16.83
2023-02-22T21:04:56.104Z,15.68
2023-02-22T21:07:43.600Z,16.40
2023-02-22T21:10:41.397Z,15.68
2023-02-22T21:13:29.283Z,17.70
2023-02-22T21:16:19.489Z,15.50
2023-02-22T21:19:08.547Z,16.98
2023-02-22T21:21:57.234Z,17.17
2023-02-22T21:24:44.592Z,16.40
2023-02-22T21:27:33.494Z,16.58
2023-02-22T21:30:21.523Z,17.55
2023-02-22T21:33:09.260Z,17.30
2023-02-22T21:35:56.732Z,17.58
2023-02-22T21:38:45.454Z,16.88
2023-02-22T21:41:34.070Z,17.85
2023-02-22T21:44:23.375Z,16.50
2023-02-22T21:47:10.633Z,18.35
2023-02-22T21:49:58.115Z,17.67
2023-02-22T21:52:47.089Z,18.58
2023-02-22T21:55:34.935Z,17.65
2023-02-22T21:58:22.676Z,17.63
2023-02-22T22:01:17.287Z,17.40
2023-02-22T22:04:06.551Z,17.23
2023-02-22T22:06:56.620Z,18.17
2023-02-22T22:09:44.669Z,16.75
2023-02-22T22:12:39.176Z,17.52
2023-02-22T22:15:27.955Z,16.52
2023-02-22T22:18:17.193Z,19.08
2023-02-22T22:21:11.327Z,18.63
2023-02-22T22:23:58.778Z,18.40
2023-02-22T22:26:46.076Z,18.95
2023-02-22T22:29:34.488Z,18.13
2023-02-22T22:32:22.249Z,18.50
2023-02-22T22:35:14.675Z,20.05
2023-02-22T22:38:02.947Z,18.33
2023-02-22T22:40:51.141Z,17.83
2023-02-22T22:43:38.908Z,18.05
2023-02-22T22:46:26.384Z,18.45
2023-02-22T22:49:14.633Z,17.40
2023-02-22T22:52:03.510Z,18.88
2023-02-22T22:54:51.352Z,17.90
2023-02-22T22:57:40.774Z,17.92
2023-02-22T23:00:35.989Z,18.48
2023-02-22T23:03:23.923Z,17.67
2023-02-22T23:06:13.317Z,19.30
2023-02-22T23:09:10.408Z,17.85
2023-02-22T23:12:08.639Z,16.65
2023-02-22T23:14:58.507Z,18.42
2023-02-22T23:17:45.811Z,17.48
2023-02-22T23:20:38.605Z,17.45
2023-02-22T23:23:27.761Z,17.75
2023-02-22T23:26:18.315Z,16.95
2023-02-22T23:29:08.771Z,18.02
2023-02-22T23:31:56.333Z,18.55
2023-02-22T23:34:44.217Z,17.55
2023-02-22T23:37:35.436Z,16.65
2023-02-22T23:40:25.964Z,17.15
2023-02-22T23:43:16.952Z,18.13
2023-02-22T23:46:10.788Z,15.95
2023-02-22T23:49:01.752Z,16.75
2023-02-22T23:51:50.743Z,15.80
2023-02-22T23:54:43.877Z,16.70
2023-02-22T23:57:32.910Z,16.73
